Pagrindinis puslapis
METAR-TAF:

METAR-TAF

Oro uostai :

Kamagvėjus, Kuba

platuma: 21-25N, ilguma: 077-51W, Aukštis: 122 m

Dabartinis oras

Ataskaita buvo paskelbta 37 minutes, ne 13:51 UTC
Vėjas 5 kt iš Rytų/Pietryčių, svyruoja nuo Rytų ir Pietų/Pietryčių
Temperatūra 28°C
Drėgmė 79%
Slėgis 1015 hPa
Matomumas 10 km arba daugiau
nėra debesų žemiau 1500 m ir nėra kamuolinių lietaus debesų

METAR: MUCM 231351Z 11005KT 080V160 CAVOK 28/24 Q1015

Laikas: 10:28 (14:28 UTC)

Prognozė

Ataskaita buvo paskelbta 3 valandos ir 28 minutes, ne 11:00 UTC
Prognozė galioja nuo 23 metu 12 UTC su 24 metu 12 UTC
Vėjas 3 kt nuo kintamojo kryptimis
Matomumas: 9000 m
Išsisklaidę debesys ne aukštis 1800 ft
Laikinai
nuo 23 metu 18 UTC su 23 metu 24 UTC
Vėjas 10 kt nuo kintamojo kryptimis
Matomumas: 3000 m
Išsisklaidę debesys ne aukštis 2000 ft, Liūtiniai kamuoliniai debesys.
Su prošvaistėmis ne aukštis 6000 ft
perkūnija, lietus

TAF: MUCM 231100Z 2312/2412 VRB03KT 9000 SCT018 TEMPO 2318/2324 VRB10KT 3000 TSRA SCT020CB BKN060

Orai ataskaitas ir orų prognozės (METAR, TAF).

turimą stotys yra geltonos ir raudonos taškus žemėlapyje.

Perkelti pele per norėdami pamatyti stoties vardą.

Tada spustelėkite, norėdami matyti oro stebėjimo ir prognozės.

Norėdami pakeisti žemėlapį: spustelėkite ant žalios mygtukų su juodo kryžiaus žemyn,; žalią mygtuką su brūkšneliu, jei norite nutolinti; arba žalių rodyklių gretimoms žemėlapius.


METAR-TAF: